Wassenaar, Netherlands
Current Conditions -  °F | °C
As of 9:55 AM on Wednesday 28 Jan 2015 (Local Time) from EHRD Reporting Station
Light Rain Light Rain  
Wind Chill: 34°   Ceiling: 500
Heat Index: 43°   Visibility: 1.5mi
Dew Point: 41°   Wind: 20mph
Humidity: 93%   Direction: 200°SSW
Pressure: 29.74"   Gusts: 31mph
Location:  52.15°N, 4.37°E
Report Text: EHRD 280855Z AUTO 20017G27KT 170V230 2500 -RA BKN005 OVC00706/05 Q1007 BECMG 6000 -DZ
Loading
Personal Weather Stations






























Interactive Weather Map New forecast layout! Learn more

10-Day Weather Forecast

Advertisements
Track Severe Weather on mobile